首页
METAR-TAF:

METAR-TAF

机场 :

海地角, 海地

纬度: 19-43-59N, 经度: 72-11-41W, 海拔: 3米

当前天气观测

该预报发布于29分钟前的13:00 UTC
风速2节,风向多变
温度 29°C
湿度 62%
气压 1020 hPa
能见度10公里或以上
散云层高于3000英尺
多云层高于6500英尺

METAR: MTCH 171300Z VRB02KT 9999 SCT030 BKN065 29/21 Q1019 A3011

时间: 08:29 (13:29 UTC)

预报

该预报发布于2小时和29分钟前的11:00 UTC
预报有效从17日的 12点(UTC)到 18日的 12点(UTC)
风速2节,风向多变
能見度: 8000
少量云层高于1800英尺
成为
从 17日的 18点(UTC)到 17日的 22点(UTC)
风速10节,风向东北
几率 30% :
短暂存在
从 17日的 22点(UTC)到 18日的 02点(UTC)
能見度: 4500
散云层高于1400英尺, 积雨云.
多云层高于3000英尺
雷暴, 雨
短暂存在
从 18日的 04点(UTC)到 18日的 08点(UTC)
风速2节,风向多变
能見度: 7000
少量云层高于1600英尺

TAF: MTCH 171100Z 1712/1812 VRB02KT 8000 FEW018 BECMG 1718/1722 05010KT PROB30 TEMPO 1722/1802 4500 TSRA SCT014CB BKN030 TEMPO 1804/1808 VRB02KT 7000 NSW FEW016

超过4000个机场的气象观测和天气预报(METAR&TAF报告)。

可查询的气象台以黄色和红色小点在地图上表示。

将鼠标移到小点上方,可查看气象台名称。

然后点击查看天气观测和预报。

如需切换地图:点击带黑十字的绿色按钮放大地图;点击带横线的绿色按钮缩小地图;或者点击绿色箭头查看邻近地区的地图。


METAR-TAF: